createdAt,value
2023-05-24T00:00:09.619Z,3.90
2023-05-24T00:02:57.609Z,8.50
2023-05-24T00:05:43.549Z,5.73
2023-05-24T00:08:28.819Z,4.40
2023-05-24T00:11:14.353Z,6.47
2023-05-24T00:13:59.598Z,3.50
2023-05-24T00:16:46.715Z,3.67
2023-05-24T00:19:32.222Z,3.40
2023-05-24T00:22:17.435Z,5.30
2023-05-24T00:25:03.042Z,4.20
2023-05-24T00:27:48.346Z,5.50
2023-05-24T00:30:33.772Z,5.87
2023-05-24T00:33:19.596Z,4.47
2023-05-24T00:36:05.310Z,5.17
2023-05-24T00:38:50.630Z,6.63
2023-05-24T00:41:36.353Z,5.33
2023-05-24T00:44:21.593Z,4.97
2023-05-24T00:47:08.066Z,4.37
2023-05-24T00:49:53.805Z,4.07
2023-05-24T00:52:40.984Z,4.53
2023-05-24T00:55:26.707Z,3.10
2023-05-24T00:58:12.726Z,3.93
2023-05-24T01:01:01.912Z,3.20
2023-05-24T01:03:47.299Z,5.40
2023-05-24T01:06:44.979Z,2.90
2023-05-24T01:09:42.621Z,3.67
2023-05-24T01:12:46.912Z,6.23
2023-05-24T01:15:57.889Z,3.17
2023-05-24T01:19:00.685Z,3.77
2023-05-24T01:21:49.029Z,4.53
2023-05-24T01:24:43.812Z,4.70
2023-05-24T01:27:34.258Z,4.57
2023-05-24T01:30:20.659Z,4.40
2023-05-24T01:33:07.183Z,4.23
2023-05-24T01:35:52.601Z,4.90
2023-05-24T01:38:39.273Z,3.23
2023-05-24T01:41:43.572Z,3.47
2023-05-24T01:44:43.232Z,4.67
2023-05-24T01:47:56.099Z,4.37
2023-05-24T01:50:48.689Z,5.47
2023-05-24T01:53:39.455Z,2.92
2023-05-24T01:56:28.022Z,4.57
2023-05-24T01:59:15.128Z,3.57
2023-05-24T02:02:01.687Z,3.27
2023-05-24T02:04:47.257Z,5.53
2023-05-24T02:07:32.476Z,4.17
2023-05-24T02:10:18.058Z,6.07
2023-05-24T02:13:03.515Z,6.03
2023-05-24T02:15:48.813Z,4.20
2023-05-24T02:18:34.662Z,5.27
2023-05-24T02:21:19.907Z,4.80
2023-05-24T02:24:06.926Z,3.80
2023-05-24T02:26:52.901Z,5.90
2023-05-24T02:29:38.285Z,3.50
2023-05-24T02:32:23.588Z,4.93
2023-05-24T02:35:08.840Z,6.23
2023-05-24T02:37:54.314Z,3.93
2023-05-24T02:40:39.446Z,5.13
2023-05-24T02:43:24.904Z,3.50
2023-05-24T02:46:10.150Z,3.83
2023-05-24T02:48:55.405Z,3.33
2023-05-24T02:51:40.754Z,4.57
2023-05-24T02:54:26.106Z,6.43
2023-05-24T02:57:11.901Z,5.33
2023-05-24T02:59:59.981Z,6.10
2023-05-24T03:02:47.905Z,6.87
2023-05-24T03:05:34.121Z,8.83
2023-05-24T03:08:19.547Z,7.87
2023-05-24T03:11:05.032Z,6.73
2023-05-24T03:13:50.526Z,8.00
2023-05-24T03:16:37.030Z,6.47
2023-05-24T03:19:22.816Z,8.67
2023-05-24T03:22:08.494Z,7.63
2023-05-24T03:24:54.461Z,7.73
2023-05-24T03:27:40.405Z,9.43
2023-05-24T03:30:26.790Z,7.23
2023-05-24T03:33:14.076Z,7.10
2023-05-24T03:36:00.501Z,7.90
2023-05-24T03:38:46.858Z,8.33
2023-05-24T03:41:32.055Z,8.47
2023-05-24T03:44:19.010Z,6.50
2023-05-24T03:47:04.715Z,9.37
2023-05-24T03:49:50.472Z,11.70
2023-05-24T03:52:36.648Z,7.10
2023-05-24T03:55:22.624Z,8.00
2023-05-24T03:58:08.053Z,6.63
2023-05-24T04:00:54.582Z,9.63
2023-05-24T04:03:41.587Z,7.20
2023-05-24T04:06:29.618Z,5.93
2023-05-24T04:09:16.697Z,7.27
2023-05-24T04:12:02.235Z,7.17
2023-05-24T04:14:55.927Z,10.30
2023-05-24T04:17:44.380Z,9.03
2023-05-24T04:20:30.272Z,8.37
2023-05-24T04:23:16.091Z,6.70
2023-05-24T04:26:02.952Z,7.40
2023-05-24T04:28:49.021Z,9.23
2023-05-24T04:31:35.355Z,8.83
2023-05-24T04:34:22.558Z,10.20
2023-05-24T04:37:09.116Z,8.83
2023-05-24T04:39:55.896Z,8.13
2023-05-24T04:42:41.329Z,9.10
2023-05-24T04:45:26.843Z,5.33
2023-05-24T04:48:12.256Z,9.17
2023-05-24T04:50:58.480Z,12.23
2023-05-24T04:53:44.112Z,7.47
2023-05-24T04:56:29.622Z,6.63
2023-05-24T04:59:14.964Z,9.20
2023-05-24T05:02:00.558Z,6.70
2023-05-24T05:04:46.226Z,9.20
2023-05-24T05:07:31.416Z,7.57
2023-05-24T05:10:18.043Z,8.10
2023-05-24T05:13:03.631Z,8.97
2023-05-24T05:15:49.009Z,10.13
2023-05-24T05:18:34.636Z,8.20
2023-05-24T05:21:20.143Z,12.20
2023-05-24T05:24:05.705Z,16.87
2023-05-24T05:26:51.365Z,14.93
2023-05-24T05:29:36.706Z,12.97
2023-05-24T05:32:22.129Z,14.07
2023-05-24T05:35:07.839Z,14.33
2023-05-24T05:37:53.187Z,14.90
2023-05-24T05:40:38.586Z,10.53
2023-05-24T05:43:25.141Z,12.60
2023-05-24T05:46:11.508Z,13.73
2023-05-24T05:48:57.274Z,12.00
2023-05-24T05:51:42.556Z,12.20
2023-05-24T05:54:28.582Z,13.73
2023-05-24T05:57:16.310Z,13.33
2023-05-24T06:00:01.890Z,13.23
2023-05-24T06:02:57.570Z,9.47
2023-05-24T06:05:43.174Z,12.10
2023-05-24T06:08:30.914Z,11.97
2023-05-24T06:11:16.234Z,13.63
2023-05-24T06:14:02.596Z,11.50
2023-05-24T06:16:48.688Z,9.43
2023-05-24T06:19:34.232Z,9.07
2023-05-24T06:22:20.030Z,12.83
2023-05-24T06:25:05.880Z,9.63
2023-05-24T06:27:54.012Z,9.93
2023-05-24T06:30:39.823Z,9.83
2023-05-24T06:33:25.998Z,9.30
2023-05-24T06:36:11.414Z,8.20
2023-05-24T06:38:56.781Z,7.63
2023-05-24T06:41:43.383Z,7.83
2023-05-24T06:44:34.096Z,8.57
2023-05-24T06:47:19.662Z,9.97
2023-05-24T06:50:05.879Z,7.93
2023-05-24T06:52:51.297Z,7.77
2023-05-24T06:55:36.518Z,7.23
2023-05-24T06:58:22.374Z,11.27
2023-05-24T07:01:08.797Z,9.03
2023-05-24T07:03:54.977Z,6.27
2023-05-24T07:06:40.347Z,8.00
2023-05-24T07:09:25.732Z,9.90
2023-05-24T07:12:11.073Z,10.17
2023-05-24T07:14:56.433Z,6.63
2023-05-24T07:17:41.928Z,9.87
2023-05-24T07:20:28.851Z,8.57
2023-05-24T07:23:14.563Z,13.60
2023-05-24T07:25:59.892Z,7.43
2023-05-24T07:28:45.237Z,9.43
2023-05-24T07:31:32.562Z,6.87
2023-05-24T07:34:21.251Z,9.60
2023-05-24T07:37:06.839Z,7.63
2023-05-24T07:39:52.241Z,7.77
2023-05-24T07:42:38.341Z,7.37
2023-05-24T07:45:23.888Z,7.47
2023-05-24T07:48:09.235Z,6.77
2023-05-24T07:50:55.054Z,7.33
2023-05-24T07:53:40.350Z,6.57
2023-05-24T07:56:26.411Z,7.00
2023-05-24T07:59:12.169Z,5.13
2023-05-24T08:02:01.738Z,6.60
2023-05-24T08:04:47.471Z,7.17
2023-05-24T08:07:32.693Z,9.07
2023-05-24T08:10:18.690Z,7.20
2023-05-24T08:13:05.160Z,5.37
2023-05-24T08:15:50.611Z,7.30
2023-05-24T08:18:36.156Z,9.90
2023-05-24T08:21:21.595Z,6.50
2023-05-24T08:24:09.330Z,4.37
2023-05-24T08:26:55.152Z,6.47
2023-05-24T08:29:41.021Z,7.60
2023-05-24T08:32:26.906Z,6.63
2023-05-24T08:35:20.742Z,8.47
2023-05-24T08:38:07.696Z,5.37
2023-05-24T08:40:53.474Z,5.70
2023-05-24T08:43:39.228Z,5.57
2023-05-24T08:46:25.259Z,5.47
2023-05-24T08:49:12.728Z,5.73
2023-05-24T08:51:58.348Z,8.00
2023-05-24T08:54:44.395Z,7.30
2023-05-24T08:57:32.610Z,8.67
2023-05-24T09:00:22.190Z,6.47
2023-05-24T09:03:08.275Z,7.40
2023-05-24T09:05:54.052Z,8.30
2023-05-24T09:08:43.033Z,4.53
2023-05-24T09:11:32.061Z,6.07
2023-05-24T09:14:17.973Z,6.20
2023-05-24T09:17:03.820Z,7.87
2023-05-24T09:19:51.729Z,7.00
2023-05-24T09:22:41.047Z,5.13
2023-05-24T09:25:28.241Z,5.80
2023-05-24T09:28:16.292Z,6.40
2023-05-24T09:31:06.275Z,6.43
2023-05-24T09:33:51.701Z,7.63
2023-05-24T09:36:41.957Z,8.97
2023-05-24T09:39:27.303Z,6.00
2023-05-24T09:42:17.753Z,6.60
2023-05-24T09:45:12.754Z,6.47
2023-05-24T09:47:58.277Z,6.73
2023-05-24T09:50:47.634Z,6.10
2023-05-24T09:53:35.040Z,4.73
2023-05-24T09:56:20.698Z,5.20
2023-05-24T09:59:10.921Z,5.10
2023-05-24T10:02:11.063Z,6.57
2023-05-24T10:05:00.961Z,6.53
2023-05-24T10:07:47.276Z,5.03
2023-05-24T10:10:37.131Z,5.20
2023-05-24T10:13:27.681Z,5.17
2023-05-24T10:16:13.199Z,5.33
2023-05-24T10:18:58.520Z,4.73
2023-05-24T10:21:43.966Z,4.27
2023-05-24T10:24:35.307Z,6.13
2023-05-24T10:27:24.878Z,4.97
2023-05-24T10:30:27.084Z,5.73
2023-05-24T10:33:14.043Z,5.50
2023-05-24T10:36:00.506Z,3.67
2023-05-24T10:38:48.877Z,7.00
2023-05-24T10:41:41.065Z,4.93
2023-05-24T10:44:30.524Z,5.27
2023-05-24T10:47:18.066Z,5.77
2023-05-24T10:50:17.637Z,4.63
2023-05-24T10:53:12.730Z,4.33
2023-05-24T10:56:04.318Z,5.70
2023-05-24T10:58:58.037Z,4.67
2023-05-24T11:04:34.161Z,3.70
2023-05-24T11:07:19.780Z,5.00
2023-05-24T11:10:10.051Z,5.50
2023-05-24T11:13:02.725Z,4.87
2023-05-24T11:15:52.067Z,5.85
2023-05-24T11:18:40.047Z,6.53
2023-05-24T11:21:27.997Z,3.93
2023-05-24T11:24:13.618Z,5.30
2023-05-24T11:27:02.472Z,5.23
2023-05-24T11:29:48.834Z,5.13
2023-05-24T11:32:34.473Z,4.43
2023-05-24T11:35:22.313Z,4.83
2023-05-24T11:38:17.393Z,3.93
2023-05-24T11:41:02.889Z,3.00
2023-05-24T11:43:48.098Z,3.50
2023-05-24T11:46:33.815Z,5.37
2023-05-24T11:49:19.413Z,6.37
2023-05-24T11:52:07.035Z,4.47
2023-05-24T11:54:52.459Z,4.13
2023-05-24T11:57:42.822Z,5.93
2023-05-24T12:00:28.563Z,4.10
2023-05-24T12:03:14.208Z,3.50
2023-05-24T12:05:59.980Z,4.83
2023-05-24T12:08:45.773Z,3.73
2023-05-24T12:11:32.608Z,5.87
2023-05-24T12:14:26.360Z,5.00
2023-05-24T12:17:22.187Z,5.03
2023-05-24T12:20:11.486Z,4.87
2023-05-24T12:22:58.231Z,6.50
2023-05-24T12:25:44.335Z,4.17
2023-05-24T12:28:36.421Z,6.03
2023-05-24T12:31:22.090Z,8.60
2023-05-24T12:34:11.817Z,6.00
2023-05-24T12:36:57.256Z,3.97
2023-05-24T12:39:44.432Z,4.60
2023-05-24T12:42:30.227Z,6.40
2023-05-24T12:45:16.967Z,4.83
2023-05-24T12:48:03.189Z,5.00
2023-05-24T12:50:49.570Z,4.83
2023-05-24T12:53:36.651Z,6.13
2023-05-24T12:56:22.816Z,3.70
2023-05-24T12:59:08.517Z,5.40
2023-05-24T13:01:54.054Z,5.00
2023-05-24T13:04:39.775Z,4.63
2023-05-24T13:07:25.161Z,4.80
2023-05-24T13:10:11.278Z,4.70
2023-05-24T13:12:57.428Z,7.27
2023-05-24T13:15:44.678Z,5.10
2023-05-24T13:18:30.414Z,5.90
2023-05-24T13:21:16.297Z,7.50
2023-05-24T13:24:01.911Z,8.23
2023-05-24T13:26:47.684Z,11.00
2023-05-24T13:29:42.384Z,10.27
2023-05-24T13:32:35.001Z,11.10
2023-05-24T13:35:20.583Z,12.07
2023-05-24T13:38:06.626Z,13.53
2023-05-24T13:40:53.664Z,17.03
2023-05-24T13:43:39.211Z,10.53
2023-05-24T13:46:24.821Z,11.00
2023-05-24T13:49:11.008Z,11.10
2023-05-24T13:51:58.399Z,12.63
2023-05-24T13:54:44.484Z,9.70
2023-05-24T13:57:46.884Z,15.50
2023-05-24T14:00:36.447Z,10.17
2023-05-24T14:03:22.130Z,14.43
2023-05-24T14:06:08.951Z,11.40
2023-05-24T14:08:54.822Z,11.63
2023-05-24T14:11:40.117Z,8.33
2023-05-24T14:17:13.756Z,11.20
2023-05-24T14:19:59.156Z,7.07
2023-05-24T14:22:44.430Z,7.77
2023-05-24T14:25:30.204Z,12.37
2023-05-24T14:28:15.690Z,12.17
2023-05-24T14:31:00.936Z,16.03
2023-05-24T14:33:46.607Z,9.43
2023-05-24T14:36:32.686Z,9.73
2023-05-24T14:39:20.080Z,11.23
2023-05-24T14:42:06.415Z,12.00
2023-05-24T14:44:51.833Z,13.13
2023-05-24T14:47:37.193Z,10.40
2023-05-24T14:50:23.337Z,10.27
2023-05-24T14:53:12.356Z,7.67
2023-05-24T14:55:58.658Z,11.03
2023-05-24T14:58:44.021Z,10.60
2023-05-24T15:01:29.291Z,11.33
2023-05-24T15:04:14.777Z,9.80
2023-05-24T15:07:00.219Z,10.90
2023-05-24T15:09:45.953Z,12.17
2023-05-24T15:12:32.365Z,5.83
2023-05-24T15:15:19.260Z,9.60
2023-05-24T15:18:05.719Z,7.90
2023-05-24T15:20:51.749Z,8.07
2023-05-24T15:23:36.883Z,14.00
2023-05-24T15:26:22.674Z,11.00
2023-05-24T15:29:07.827Z,12.27
2023-05-24T15:31:53.090Z,10.13
2023-05-24T15:34:38.662Z,12.23
2023-05-24T15:37:24.385Z,8.53
2023-05-24T15:40:10.556Z,11.50
2023-05-24T15:42:56.158Z,8.00
2023-05-24T15:45:43.819Z,8.90
2023-05-24T15:48:29.047Z,10.20
2023-05-24T15:54:03.538Z,8.47
2023-05-24T15:56:49.940Z,9.53
2023-05-24T15:59:36.860Z,12.03
2023-05-24T16:02:22.421Z,10.87
2023-05-24T16:05:08.236Z,11.10
2023-05-24T16:07:53.824Z,15.83
2023-05-24T16:10:39.352Z,17.83
2023-05-24T16:13:24.759Z,17.30
2023-05-24T16:16:10.252Z,16.50
2023-05-24T16:18:55.500Z,10.13
2023-05-24T16:21:45.004Z,14.33
2023-05-24T16:24:30.497Z,14.13
2023-05-24T16:27:16.122Z,8.77
2023-05-24T16:30:01.288Z,18.17
2023-05-24T16:32:46.908Z,7.73
2023-05-24T16:35:32.426Z,11.33
2023-05-24T16:38:18.556Z,9.47
2023-05-24T16:41:06.085Z,10.43
2023-05-24T16:43:52.982Z,10.90
2023-05-24T16:46:38.542Z,9.93
2023-05-24T16:49:24.013Z,13.00
2023-05-24T16:52:09.423Z,11.13
2023-05-24T16:54:54.977Z,7.47
2023-05-24T16:57:40.732Z,6.80
2023-05-24T17:00:26.382Z,9.13
2023-05-24T17:03:12.393Z,5.10
2023-05-24T17:06:08.070Z,8.40
2023-05-24T17:09:05.096Z,8.67
2023-05-24T17:11:52.995Z,9.87
2023-05-24T17:14:38.336Z,9.50
2023-05-24T17:17:23.799Z,7.03
2023-05-24T17:20:10.076Z,8.00
2023-05-24T17:22:55.819Z,6.53
2023-05-24T17:25:41.692Z,10.83
2023-05-24T17:28:27.949Z,7.63
2023-05-24T17:31:16.376Z,9.23
2023-05-24T17:34:02.218Z,7.50
2023-05-24T17:36:47.891Z,10.73
2023-05-24T17:39:33.144Z,5.83
2023-05-24T17:42:19.191Z,8.77
2023-05-24T17:45:05.254Z,11.20
2023-05-24T17:47:50.677Z,8.07
2023-05-24T17:50:39.280Z,6.03
2023-05-24T17:53:31.771Z,10.00
2023-05-24T17:56:18.217Z,10.80
2023-05-24T17:59:03.993Z,8.87
2023-05-24T18:01:49.596Z,19.67
2023-05-24T18:04:35.242Z,8.10
2023-05-24T18:07:20.537Z,10.37
2023-05-24T18:10:06.933Z,8.97
2023-05-24T18:12:52.592Z,6.37
2023-05-24T18:15:37.976Z,10.67
2023-05-24T18:18:23.523Z,9.37
2023-05-24T18:21:09.892Z,10.73
2023-05-24T18:23:55.657Z,8.83
2023-05-24T18:26:41.087Z,8.27
2023-05-24T18:29:26.529Z,8.03
2023-05-24T18:32:12.339Z,6.13
2023-05-24T18:34:58.166Z,8.30
2023-05-24T18:37:46.980Z,5.60
2023-05-24T18:40:32.692Z,8.60
2023-05-24T18:43:18.087Z,7.63
2023-05-24T18:46:03.760Z,9.50
2023-05-24T18:48:49.362Z,5.13
2023-05-24T18:51:34.918Z,6.27
2023-05-24T18:54:20.728Z,10.03
2023-05-24T18:57:06.394Z,7.33
2023-05-24T18:59:52.384Z,9.23
2023-05-24T19:02:40.855Z,6.33
2023-05-24T19:05:26.282Z,6.10
2023-05-24T19:08:12.080Z,11.97
2023-05-24T19:10:57.484Z,7.33
2023-05-24T19:13:42.911Z,5.80
2023-05-24T19:16:28.550Z,7.67
2023-05-24T19:19:13.920Z,8.33
2023-05-24T19:22:00.098Z,5.73
2023-05-24T19:24:45.726Z,5.13
2023-05-24T19:27:31.026Z,6.27
2023-05-24T19:30:17.468Z,6.77
2023-05-24T19:33:02.819Z,5.07
2023-05-24T19:35:48.118Z,6.60
2023-05-24T19:38:33.351Z,5.20
2023-05-24T19:41:18.670Z,8.10
2023-05-24T19:44:04.131Z,7.07
2023-05-24T19:46:49.510Z,6.13
2023-05-24T19:49:35.109Z,7.30
2023-05-24T19:52:21.318Z,8.80
2023-05-24T19:55:08.336Z,6.67
2023-05-24T19:57:53.928Z,4.33
2023-05-24T20:00:39.191Z,6.47
2023-05-24T20:03:25.071Z,4.57
2023-05-24T20:06:10.574Z,7.93
2023-05-24T20:08:58.812Z,7.07
2023-05-24T20:11:45.828Z,6.57
2023-05-24T20:14:31.723Z,5.60
2023-05-24T20:17:17.287Z,6.37
2023-05-24T20:20:04.328Z,5.00
2023-05-24T20:22:49.881Z,5.67
2023-05-24T20:25:35.786Z,5.33
2023-05-24T20:28:30.243Z,5.57
2023-05-24T20:31:17.401Z,5.93
2023-05-24T20:34:02.572Z,7.87
2023-05-24T20:36:47.910Z,5.57
2023-05-24T20:39:33.394Z,5.67
2023-05-24T20:42:18.798Z,6.97
2023-05-24T20:45:04.505Z,4.70
2023-05-24T20:47:49.978Z,4.93
2023-05-24T20:50:35.397Z,6.53
2023-05-24T20:53:20.765Z,4.97
2023-05-24T20:56:06.039Z,5.40
2023-05-24T20:58:54.752Z,5.63
2023-05-24T21:01:40.334Z,6.53
2023-05-24T21:04:25.843Z,5.37
2023-05-24T21:07:11.506Z,4.73
2023-05-24T21:09:56.836Z,6.57
2023-05-24T21:12:42.099Z,6.07
2023-05-24T21:15:27.310Z,7.57
2023-05-24T21:18:12.690Z,4.63
2023-05-24T21:20:58.082Z,4.00
2023-05-24T21:23:43.398Z,5.70
2023-05-24T21:26:28.594Z,4.50
2023-05-24T21:29:13.933Z,3.80
2023-05-24T21:31:59.255Z,4.40
2023-05-24T21:34:44.888Z,4.87
2023-05-24T21:37:30.236Z,5.67
2023-05-24T21:40:15.766Z,4.03
2023-05-24T21:43:00.961Z,6.90
2023-05-24T21:45:46.209Z,5.20
2023-05-24T21:48:31.473Z,5.87
2023-05-24T21:51:16.745Z,3.70
2023-05-24T21:54:02.207Z,5.00
2023-05-24T21:56:47.451Z,7.37
2023-05-24T21:59:32.939Z,5.63
2023-05-24T22:02:18.983Z,5.87
2023-05-24T22:05:05.432Z,6.17
2023-05-24T22:07:50.965Z,6.87
2023-05-24T22:10:36.250Z,4.10
2023-05-24T22:13:21.726Z,6.43
2023-05-24T22:16:07.394Z,5.53
2023-05-24T22:18:55.642Z,5.63
2023-05-24T22:21:41.892Z,3.37
2023-05-24T22:24:27.282Z,4.23
2023-05-24T22:27:13.797Z,4.77
2023-05-24T22:29:59.568Z,4.20
2023-05-24T22:32:45.042Z,4.57
2023-05-24T22:35:30.471Z,5.43
2023-05-24T22:38:15.832Z,3.87
2023-05-24T22:41:01.253Z,4.03
2023-05-24T22:43:46.731Z,5.13
2023-05-24T22:46:32.024Z,5.97
2023-05-24T22:49:19.629Z,7.70
2023-05-24T22:52:06.995Z,4.63
2023-05-24T22:54:52.307Z,4.23
2023-05-24T22:57:38.108Z,4.20
2023-05-24T23:00:23.621Z,4.73
2023-05-24T23:03:09.572Z,4.90
2023-05-24T23:05:55.967Z,3.97
2023-05-24T23:08:41.423Z,4.10
2023-05-24T23:11:26.809Z,5.13
2023-05-24T23:14:12.182Z,5.10
2023-05-24T23:17:02.473Z,4.83
2023-05-24T23:19:50.183Z,4.50
2023-05-24T23:22:37.743Z,5.50
2023-05-24T23:25:22.960Z,4.77
2023-05-24T23:28:09.486Z,4.73
2023-05-24T23:30:55.314Z,6.37
2023-05-24T23:33:40.508Z,3.97
2023-05-24T23:36:26.132Z,4.23
2023-05-24T23:39:12.641Z,4.13
2023-05-24T23:41:57.913Z,5.53
2023-05-24T23:44:43.078Z,4.93
2023-05-24T23:47:28.317Z,3.40
2023-05-24T23:50:17.374Z,4.03
2023-05-24T23:53:04.944Z,3.77
2023-05-24T23:55:50.842Z,4.40
2023-05-24T23:58:37.769Z,4.27
